QLK2222 YBBN-YSSY
Flight info
| Callsign | QLK2222 |
|---|---|
| Flight time | 1h 40m |
| Altitude | 24000 |
| Route | BN H91 SANAD/N0320F200 W786 EKIBI/N0318F190 W786 OLTIN H201 TESAT |
| Aircraft | DH8D/M-SDE2E3FGRY/H |
Departure
| Time | 2026-04-25 06:14 |
|---|---|
| Airport | Brisbane International Airport (YBBN) |
Arrival
| Time | 2026-04-25 07:54 |
|---|---|
| Airport | Sydney Kingsford Smith International Airport (YSSY) |
| Time | Latitude | Longitude | Altitude | Speed | Heading |
|---|---|---|---|---|---|
| 2026-04-25 05:45 | -27.39054 | 153.11923 | 22 ft | 0 kts | 207° |
| 2026-04-25 06:03 | -27.39049 | 153.11926 | 22 ft | 2 kts | 207° |
| 2026-04-25 06:04 | -27.39035 | 153.11934 | 22 ft | 2 kts | 207° |
| 2026-04-25 06:04 | -27.39024 | 153.11940 | 22 ft | 0 kts | 207° |
| 2026-04-25 06:04 | -27.39014 | 153.11946 | 22 ft | 2 kts | 197° |
| 2026-04-25 06:04 | -27.38999 | 153.11949 | 22 ft | 2 kts | 182° |
| 2026-04-25 06:05 | -27.38984 | 153.11948 | 22 ft | 2 kts | 168° |
| 2026-04-25 06:05 | -27.38969 | 153.11942 | 22 ft | 2 kts | 154° |
| 2026-04-25 06:05 | -27.38957 | 153.11934 | 22 ft | 2 kts | 141° |
| 2026-04-25 06:05 | -27.38947 | 153.11922 | 22 ft | 2 kts | 127° |
| 2026-04-25 06:06 | -27.38940 | 153.11909 | 22 ft | 1 kts | 117° |
| 2026-04-25 06:08 | -27.38954 | 153.11942 | 22 ft | 7 kts | 115° |
| 2026-04-25 06:08 | -27.38981 | 153.11993 | 22 ft | 8 kts | 126° |
| 2026-04-25 06:09 | -27.39027 | 153.12077 | 22 ft | 14 kts | 115° |
| 2026-04-25 06:09 | -27.39021 | 153.12172 | 22 ft | 14 kts | 44° |
| 2026-04-25 06:09 | -27.38936 | 153.12225 | 22 ft | 15 kts | 27° |
| 2026-04-25 06:09 | -27.38854 | 153.12271 | 22 ft | 11 kts | 27° |
| 2026-04-25 06:10 | -27.38775 | 153.12315 | 22 ft | 15 kts | 27° |
| 2026-04-25 06:10 | -27.38687 | 153.12366 | 22 ft | 12 kts | 27° |
| 2026-04-25 06:10 | -27.38604 | 153.12411 | 22 ft | 14 kts | 27° |
| 2026-04-25 06:10 | -27.38502 | 153.12471 | 22 ft | 17 kts | 27° |
| 2026-04-25 06:11 | -27.38390 | 153.12535 | 22 ft | 19 kts | 27° |
| 2026-04-25 06:11 | -27.38280 | 153.12598 | 22 ft | 14 kts | 27° |
| 2026-04-25 06:11 | -27.38187 | 153.12653 | 22 ft | 16 kts | 28° |
| 2026-04-25 06:11 | -27.38096 | 153.12705 | 22 ft | 12 kts | 27° |
| 2026-04-25 06:12 | -27.38028 | 153.12744 | 22 ft | 9 kts | 28° |
| 2026-04-25 06:12 | -27.37992 | 153.12787 | 22 ft | 6 kts | 73° |
| 2026-04-25 06:12 | -27.38003 | 153.12842 | 22 ft | 11 kts | 118° |
| 2026-04-25 06:12 | -27.38037 | 153.12915 | 22 ft | 9 kts | 117° |
| 2026-04-25 06:13 | -27.38063 | 153.12973 | 22 ft | 9 kts | 117° |
| 2026-04-25 06:13 | -27.38096 | 153.13045 | 22 ft | 6 kts | 123° |
| 2026-04-25 06:13 | -27.38131 | 153.13052 | 22 ft | 6 kts | 194° |
| 2026-04-25 06:14 | -27.38417 | 153.12891 | 22 ft | 72 kts | 206° |
| 2026-04-25 06:14 | -27.39087 | 153.12508 | 24 ft | 138 kts | 206° |
| 2026-04-25 06:14 | -27.39982 | 153.11937 | 291 ft | 152 kts | 208° |
| 2026-04-25 06:14 | -27.40886 | 153.11365 | 765 ft | 158 kts | 204° |
| 2026-04-25 06:15 | -27.41879 | 153.10783 | 1249 ft | 162 kts | 196° |
| 2026-04-25 06:15 | -27.42889 | 153.10684 | 1905 ft | 142 kts | 160° |
| 2026-04-25 06:15 | -27.43764 | 153.11079 | 2474 ft | 140 kts | 150° |
| 2026-04-25 06:15 | -27.44610 | 153.11551 | 3010 ft | 140 kts | 149° |
| 2026-04-25 06:16 | -27.45448 | 153.12039 | 3572 ft | 135 kts | 149° |
| 2026-04-25 06:16 | -27.46290 | 153.12543 | 3978 ft | 140 kts | 146° |
| 2026-04-25 06:16 | -27.47120 | 153.13098 | 4454 ft | 140 kts | 145° |
| 2026-04-25 06:16 | -27.47957 | 153.13664 | 4892 ft | 144 kts | 145° |
| 2026-04-25 06:17 | -27.48823 | 153.14250 | 5354 ft | 146 kts | 144° |
| 2026-04-25 06:17 | -27.49739 | 153.14735 | 5822 ft | 152 kts | 167° |
| 2026-04-25 06:17 | -27.50840 | 153.14610 | 6214 ft | 163 kts | 185° |
| 2026-04-25 06:17 | -27.51927 | 153.14345 | 6684 ft | 163 kts | 185° |
| 2026-04-25 06:18 | -27.53046 | 153.14067 | 7138 ft | 164 kts | 185° |
| 2026-04-25 06:18 | -27.54149 | 153.13788 | 7561 ft | 166 kts | 186° |
| 2026-04-25 06:18 | -27.55275 | 153.13492 | 7989 ft | 167 kts | 187° |
| 2026-04-25 06:18 | -27.56365 | 153.13123 | 8378 ft | 171 kts | 192° |
| 2026-04-25 06:19 | -27.57485 | 153.12674 | 8790 ft | 172 kts | 193° |
| 2026-04-25 06:19 | -27.58609 | 153.12225 | 9204 ft | 173 kts | 192° |
| 2026-04-25 06:19 | -27.59740 | 153.11783 | 9590 ft | 174 kts | 191° |
| 2026-04-25 06:19 | -27.60880 | 153.11343 | 9952 ft | 177 kts | 191° |
| 2026-04-25 06:20 | -27.62063 | 153.10890 | 10338 ft | 178 kts | 190° |
| 2026-04-25 06:20 | -27.63238 | 153.10495 | 10709 ft | 177 kts | 189° |
| 2026-04-25 06:20 | -27.64428 | 153.10107 | 11066 ft | 179 kts | 188° |
| 2026-04-25 06:20 | -27.65621 | 153.09718 | 11423 ft | 180 kts | 188° |
| 2026-04-25 06:21 | -27.66816 | 153.09326 | 11764 ft | 181 kts | 189° |
| 2026-04-25 06:21 | -27.68005 | 153.08933 | 12089 ft | 181 kts | 189° |
| 2026-04-25 06:21 | -27.69225 | 153.08530 | 12417 ft | 182 kts | 189° |
| 2026-04-25 06:21 | -27.70435 | 153.08128 | 12717 ft | 184 kts | 188° |
| 2026-04-25 06:22 | -27.71668 | 153.07718 | 13020 ft | 185 kts | 189° |
| 2026-04-25 06:22 | -27.72915 | 153.07304 | 13317 ft | 186 kts | 188° |
| 2026-04-25 06:22 | -27.74148 | 153.06894 | 13623 ft | 185 kts | 189° |
| 2026-04-25 06:22 | -27.75371 | 153.06485 | 13884 ft | 187 kts | 189° |
| 2026-04-25 06:23 | -27.76642 | 153.06061 | 14173 ft | 188 kts | 189° |
| 2026-04-25 06:23 | -27.77883 | 153.05647 | 14472 ft | 187 kts | 189° |
| 2026-04-25 06:23 | -27.79139 | 153.05228 | 14731 ft | 188 kts | 189° |
| 2026-04-25 06:23 | -27.80401 | 153.04807 | 14991 ft | 188 kts | 189° |
| 2026-04-25 06:24 | -27.81657 | 153.04387 | 15215 ft | 190 kts | 189° |
| 2026-04-25 06:24 | -27.82931 | 153.03906 | 15451 ft | 193 kts | 194° |
| 2026-04-25 06:24 | -27.84188 | 153.03348 | 15688 ft | 194 kts | 194° |
| 2026-04-25 06:24 | -27.85440 | 153.02788 | 15934 ft | 194 kts | 194° |
| 2026-04-25 06:25 | -27.86710 | 153.02222 | 16155 ft | 195 kts | 195° |
| 2026-04-25 06:25 | -27.87968 | 153.01663 | 16390 ft | 195 kts | 194° |
| 2026-04-25 06:25 | -27.89234 | 153.01103 | 16627 ft | 196 kts | 195° |
| 2026-04-25 06:25 | -27.90520 | 153.00537 | 16839 ft | 196 kts | 194° |
| 2026-04-25 06:26 | -27.91795 | 152.99977 | 17047 ft | 197 kts | 195° |
| 2026-04-25 06:26 | -27.93075 | 152.99414 | 17261 ft | 197 kts | 194° |
| 2026-04-25 06:26 | -27.94349 | 152.98856 | 17482 ft | 198 kts | 195° |
| 2026-04-25 06:26 | -27.95648 | 152.98283 | 17709 ft | 198 kts | 195° |
| 2026-04-25 06:27 | -27.96935 | 152.97719 | 17904 ft | 199 kts | 195° |
| 2026-04-25 06:27 | -27.98220 | 152.97154 | 18128 ft | 199 kts | 195° |
| 2026-04-25 06:27 | -27.99514 | 152.96587 | 18339 ft | 199 kts | 195° |
| 2026-04-25 06:27 | -28.00815 | 152.96016 | 18529 ft | 200 kts | 195° |
| 2026-04-25 06:28 | -28.02119 | 152.95442 | 18729 ft | 201 kts | 195° |
| 2026-04-25 06:28 | -28.03435 | 152.94865 | 18919 ft | 202 kts | 195° |
| 2026-04-25 06:28 | -28.04753 | 152.94286 | 19109 ft | 202 kts | 195° |
| 2026-04-25 06:28 | -28.06070 | 152.93707 | 19300 ft | 203 kts | 195° |
| 2026-04-25 06:29 | -28.07388 | 152.93129 | 19489 ft | 203 kts | 195° |
| 2026-04-25 06:29 | -28.08708 | 152.92549 | 19664 ft | 203 kts | 195° |
| 2026-04-25 06:29 | -28.10035 | 152.91965 | 19842 ft | 204 kts | 196° |
| 2026-04-25 06:29 | -28.11346 | 152.91382 | 20004 ft | 204 kts | 196° |
| 2026-04-25 06:30 | -28.12677 | 152.90791 | 20158 ft | 205 kts | 196° |
| 2026-04-25 06:30 | -28.14017 | 152.90196 | 20336 ft | 205 kts | 196° |
| 2026-04-25 06:30 | -28.15344 | 152.89606 | 20492 ft | 206 kts | 196° |
| 2026-04-25 06:30 | -28.16685 | 152.89011 | 20647 ft | 206 kts | 196° |
| 2026-04-25 06:31 | -28.18023 | 152.88415 | 20814 ft | 206 kts | 196° |
| 2026-04-25 06:31 | -28.19373 | 152.87816 | 20955 ft | 207 kts | 196° |
| 2026-04-25 06:31 | -28.20701 | 152.87225 | 21117 ft | 206 kts | 196° |
| 2026-04-25 06:31 | -28.22055 | 152.86623 | 21244 ft | 208 kts | 196° |
| 2026-04-25 06:32 | -28.23409 | 152.86020 | 21406 ft | 207 kts | 196° |
| 2026-04-25 06:32 | -28.24739 | 152.85428 | 21560 ft | 207 kts | 196° |
| 2026-04-25 06:32 | -28.26085 | 152.84830 | 21698 ft | 207 kts | 197° |
| 2026-04-25 06:32 | -28.27433 | 152.84229 | 21829 ft | 208 kts | 196° |
| 2026-04-25 06:33 | -28.28787 | 152.83627 | 21934 ft | 209 kts | 196° |
| 2026-04-25 06:33 | -28.30157 | 152.83017 | 22042 ft | 210 kts | 196° |
| 2026-04-25 06:33 | -28.31514 | 152.82413 | 22137 ft | 211 kts | 196° |
| 2026-04-25 06:33 | -28.32875 | 152.81807 | 22252 ft | 210 kts | 196° |
| 2026-04-25 06:34 | -28.34239 | 152.81198 | 22378 ft | 209 kts | 195° |
| 2026-04-25 06:34 | -28.35612 | 152.80586 | 22483 ft | 209 kts | 196° |
| 2026-04-25 06:34 | -28.36962 | 152.79984 | 22583 ft | 210 kts | 196° |
| 2026-04-25 06:34 | -28.38333 | 152.79373 | 22648 ft | 211 kts | 196° |
| 2026-04-25 06:35 | -28.39705 | 152.78761 | 22759 ft | 210 kts | 196° |
| 2026-04-25 06:35 | -28.41069 | 152.78151 | 22844 ft | 211 kts | 196° |
| 2026-04-25 06:35 | -28.42434 | 152.77542 | 22928 ft | 210 kts | 196° |
| 2026-04-25 06:35 | -28.43791 | 152.76936 | 23015 ft | 211 kts | 195° |
| 2026-04-25 06:36 | -28.45171 | 152.76320 | 23098 ft | 211 kts | 195° |
| 2026-04-25 06:36 | -28.46541 | 152.75708 | 23196 ft | 211 kts | 195° |
| 2026-04-25 06:36 | -28.47913 | 152.75095 | 23291 ft | 212 kts | 196° |
| 2026-04-25 06:36 | -28.49293 | 152.74477 | 23374 ft | 212 kts | 196° |
| 2026-04-25 06:37 | -28.50666 | 152.73862 | 23476 ft | 212 kts | 196° |
| 2026-04-25 06:37 | -28.52046 | 152.73244 | 23576 ft | 212 kts | 195° |
| 2026-04-25 06:37 | -28.53418 | 152.72629 | 23650 ft | 212 kts | 195° |
| 2026-04-25 06:37 | -28.54790 | 152.72014 | 23743 ft | 211 kts | 195° |
| 2026-04-25 06:38 | -28.56171 | 152.71394 | 23838 ft | 211 kts | 195° |
| 2026-04-25 06:38 | -28.57532 | 152.70785 | 23895 ft | 212 kts | 196° |
| 2026-04-25 06:38 | -28.58926 | 152.70160 | 23963 ft | 213 kts | 195° |
| 2026-04-25 06:38 | -28.60291 | 152.69550 | 24046 ft | 213 kts | 195° |
| 2026-04-25 06:39 | -28.61691 | 152.68921 | 24122 ft | 213 kts | 195° |
| 2026-04-25 06:39 | -28.63065 | 152.68304 | 24220 ft | 212 kts | 195° |
| 2026-04-25 06:39 | -28.64443 | 152.67686 | 24266 ft | 214 kts | 195° |
| 2026-04-25 06:39 | -28.65846 | 152.67058 | 24281 ft | 217 kts | 195° |
| 2026-04-25 06:40 | -28.67252 | 152.66429 | 24286 ft | 220 kts | 195° |
| 2026-04-25 06:40 | -28.68690 | 152.65785 | 24292 ft | 223 kts | 195° |
| 2026-04-25 06:40 | -28.70155 | 152.65129 | 24284 ft | 226 kts | 195° |
| 2026-04-25 06:40 | -28.71633 | 152.64468 | 24286 ft | 228 kts | 195° |
| 2026-04-25 06:41 | -28.73113 | 152.63805 | 24289 ft | 231 kts | 195° |
| 2026-04-25 06:41 | -28.74630 | 152.63124 | 24289 ft | 234 kts | 196° |
| 2026-04-25 06:41 | -28.76156 | 152.62436 | 24289 ft | 237 kts | 195° |
| 2026-04-25 06:41 | -28.77715 | 152.61737 | 24287 ft | 241 kts | 195° |
| 2026-04-25 06:42 | -28.79295 | 152.61028 | 24287 ft | 244 kts | 195° |
| 2026-04-25 06:42 | -28.80890 | 152.60312 | 24278 ft | 249 kts | 195° |
| 2026-04-25 06:42 | -28.82549 | 152.59570 | 24073 ft | 262 kts | 195° |
| 2026-04-25 06:42 | -28.84306 | 152.58784 | 23810 ft | 277 kts | 197° |
| 2026-04-25 06:43 | -28.86119 | 152.57835 | 23545 ft | 294 kts | 202° |
| 2026-04-25 06:43 | -28.87982 | 152.56728 | 23284 ft | 308 kts | 202° |
| 2026-04-25 06:43 | -28.89920 | 152.55572 | 23014 ft | 318 kts | 202° |
| 2026-04-25 06:43 | -28.91896 | 152.54388 | 22736 ft | 323 kts | 202° |
| 2026-04-25 06:44 | -28.93901 | 152.53191 | 22464 ft | 330 kts | 202° |
| 2026-04-25 06:44 | -28.95966 | 152.51956 | 22336 ft | 332 kts | 202° |
| 2026-04-25 06:44 | -28.98007 | 152.50735 | 22313 ft | 332 kts | 202° |
| 2026-04-25 06:44 | -29.00049 | 152.49515 | 22303 ft | 331 kts | 202° |
| 2026-04-25 06:45 | -29.02120 | 152.48277 | 22313 ft | 331 kts | 202° |
| 2026-04-25 06:45 | -29.04166 | 152.47057 | 22319 ft | 331 kts | 202° |
| 2026-04-25 06:45 | -29.06197 | 152.45845 | 22320 ft | 332 kts | 202° |
| 2026-04-25 06:45 | -29.08247 | 152.44621 | 22324 ft | 332 kts | 202° |
| 2026-04-25 06:46 | -29.10311 | 152.43388 | 22329 ft | 332 kts | 202° |
| 2026-04-25 06:46 | -29.12372 | 152.42157 | 22325 ft | 333 kts | 202° |
| 2026-04-25 06:46 | -29.14425 | 152.40930 | 22323 ft | 333 kts | 202° |
| 2026-04-25 06:46 | -29.16476 | 152.39703 | 22320 ft | 333 kts | 202° |
| 2026-04-25 06:47 | -29.18548 | 152.38466 | 22325 ft | 333 kts | 202° |
| 2026-04-25 06:47 | -29.20593 | 152.37242 | 22331 ft | 333 kts | 202° |
| 2026-04-25 06:47 | -29.22653 | 152.36009 | 22331 ft | 332 kts | 202° |
| 2026-04-25 06:47 | -29.24698 | 152.34786 | 22328 ft | 332 kts | 202° |
| 2026-04-25 06:48 | -29.26755 | 152.33554 | 22330 ft | 332 kts | 203° |
| 2026-04-25 06:48 | -29.28823 | 152.32312 | 22337 ft | 332 kts | 203° |
| 2026-04-25 06:48 | -29.30868 | 152.31088 | 22341 ft | 332 kts | 202° |
| 2026-04-25 06:48 | -29.32912 | 152.29863 | 22341 ft | 332 kts | 202° |
| 2026-04-25 06:49 | -29.34984 | 152.28618 | 22344 ft | 333 kts | 202° |
| 2026-04-25 06:49 | -29.37028 | 152.27391 | 22340 ft | 333 kts | 203° |
| 2026-04-25 06:49 | -29.39061 | 152.26170 | 22344 ft | 332 kts | 202° |
| 2026-04-25 06:49 | -29.41138 | 152.24922 | 22341 ft | 332 kts | 202° |
| 2026-04-25 06:50 | -29.43179 | 152.23695 | 22340 ft | 333 kts | 202° |
| 2026-04-25 06:50 | -29.45245 | 152.22453 | 22337 ft | 333 kts | 202° |
| 2026-04-25 06:50 | -29.47287 | 152.21225 | 22337 ft | 333 kts | 203° |
| 2026-04-25 06:50 | -29.49329 | 152.19995 | 22342 ft | 333 kts | 203° |
| 2026-04-25 06:51 | -29.51403 | 152.18747 | 22338 ft | 333 kts | 203° |
| 2026-04-25 06:51 | -29.53448 | 152.17514 | 22342 ft | 333 kts | 203° |
| 2026-04-25 06:51 | -29.55504 | 152.16275 | 22347 ft | 332 kts | 202° |
| 2026-04-25 06:51 | -29.57554 | 152.15039 | 22351 ft | 332 kts | 202° |
| 2026-04-25 06:52 | -29.59598 | 152.13806 | 22347 ft | 332 kts | 203° |
| 2026-04-25 06:52 | -29.61667 | 152.12556 | 22348 ft | 332 kts | 203° |
| 2026-04-25 06:52 | -29.63711 | 152.11322 | 22345 ft | 332 kts | 203° |
| 2026-04-25 06:52 | -29.65769 | 152.10080 | 22347 ft | 332 kts | 202° |
| 2026-04-25 06:53 | -29.67808 | 152.08847 | 22350 ft | 332 kts | 202° |
| 2026-04-25 06:53 | -29.69875 | 152.07634 | 22343 ft | 330 kts | 199° |
| 2026-04-25 06:53 | -29.72051 | 152.06892 | 22367 ft | 322 kts | 187° |
| 2026-04-25 06:53 | -29.74247 | 152.06332 | 22357 ft | 323 kts | 188° |
| 2026-04-25 06:54 | -29.76426 | 152.05768 | 22357 ft | 323 kts | 188° |
| 2026-04-25 06:54 | -29.78629 | 152.05208 | 22354 ft | 324 kts | 188° |
| 2026-04-25 06:54 | -29.80851 | 152.04636 | 22353 ft | 323 kts | 188° |
| 2026-04-25 06:54 | -29.83032 | 152.04074 | 22354 ft | 323 kts | 188° |
| 2026-04-25 06:55 | -29.85260 | 152.03497 | 22354 ft | 324 kts | 188° |
| 2026-04-25 06:55 | -29.87463 | 152.02925 | 22356 ft | 324 kts | 188° |
| 2026-04-25 06:55 | -29.89670 | 152.02351 | 22356 ft | 324 kts | 188° |
| 2026-04-25 06:55 | -29.91881 | 152.01776 | 22355 ft | 324 kts | 188° |
| 2026-04-25 06:56 | -29.94070 | 152.01204 | 22356 ft | 325 kts | 188° |
| 2026-04-25 06:56 | -29.96282 | 152.00627 | 22363 ft | 325 kts | 188° |
| 2026-04-25 06:56 | -29.98498 | 152.00047 | 22360 ft | 324 kts | 188° |
| 2026-04-25 06:56 | -30.00685 | 151.99475 | 22360 ft | 324 kts | 188° |
| 2026-04-25 06:57 | -30.02925 | 151.98889 | 22363 ft | 324 kts | 188° |
| 2026-04-25 06:57 | -30.05122 | 151.98312 | 22362 ft | 324 kts | 188° |
| 2026-04-25 06:57 | -30.07346 | 151.97729 | 22366 ft | 324 kts | 188° |
| 2026-04-25 06:57 | -30.09536 | 151.97156 | 22364 ft | 324 kts | 188° |
| 2026-04-25 06:58 | -30.11745 | 151.96576 | 22364 ft | 324 kts | 188° |
| 2026-04-25 06:58 | -30.13948 | 151.95998 | 22362 ft | 324 kts | 188° |
| 2026-04-25 06:58 | -30.16139 | 151.95421 | 22361 ft | 324 kts | 188° |
| 2026-04-25 06:58 | -30.18347 | 151.94841 | 22364 ft | 324 kts | 188° |
| 2026-04-25 06:59 | -30.20556 | 151.94261 | 22362 ft | 325 kts | 188° |
| 2026-04-25 06:59 | -30.22768 | 151.93678 | 22362 ft | 325 kts | 188° |
| 2026-04-25 06:59 | -30.24996 | 151.93092 | 22360 ft | 326 kts | 188° |
| 2026-04-25 06:59 | -30.27204 | 151.92511 | 22359 ft | 326 kts | 188° |
| 2026-04-25 07:00 | -30.29432 | 151.91923 | 22357 ft | 326 kts | 188° |
| 2026-04-25 07:00 | -30.31654 | 151.91334 | 22352 ft | 327 kts | 189° |
| 2026-04-25 07:00 | -30.33799 | 151.90524 | 22352 ft | 330 kts | 197° |
| 2026-04-25 07:00 | -30.35934 | 151.89519 | 22356 ft | 331 kts | 197° |
| 2026-04-25 07:01 | -30.38104 | 151.88509 | 22363 ft | 331 kts | 198° |
| 2026-04-25 07:01 | -30.40212 | 151.87518 | 22364 ft | 330 kts | 198° |
| 2026-04-25 07:01 | -30.42351 | 151.86517 | 22368 ft | 330 kts | 197° |
| 2026-04-25 07:01 | -30.44473 | 151.85524 | 22368 ft | 330 kts | 197° |
| 2026-04-25 07:02 | -30.46643 | 151.84509 | 22359 ft | 330 kts | 197° |
| 2026-04-25 07:02 | -30.48775 | 151.83513 | 22366 ft | 330 kts | 197° |
| 2026-04-25 07:02 | -30.50924 | 151.82509 | 22361 ft | 329 kts | 197° |
| 2026-04-25 07:02 | -30.53042 | 151.81520 | 22361 ft | 330 kts | 198° |
| 2026-04-25 07:03 | -30.55165 | 151.80508 | 22366 ft | 330 kts | 198° |
| 2026-04-25 07:03 | -30.57299 | 151.79495 | 22364 ft | 330 kts | 198° |
| 2026-04-25 07:03 | -30.59447 | 151.78502 | 22361 ft | 329 kts | 197° |
| 2026-04-25 07:03 | -30.61590 | 151.77508 | 22353 ft | 330 kts | 198° |
| 2026-04-25 07:04 | -30.63736 | 151.76511 | 22359 ft | 330 kts | 198° |
| 2026-04-25 07:04 | -30.65853 | 151.75525 | 22364 ft | 330 kts | 197° |
| 2026-04-25 07:04 | -30.67986 | 151.74530 | 22356 ft | 330 kts | 198° |
| 2026-04-25 07:04 | -30.70148 | 151.73520 | 22355 ft | 330 kts | 198° |
| 2026-04-25 07:05 | -30.72289 | 151.72519 | 22351 ft | 331 kts | 198° |
| 2026-04-25 07:05 | -30.74423 | 151.71521 | 22357 ft | 331 kts | 198° |
| 2026-04-25 07:05 | -30.76560 | 151.70522 | 22362 ft | 331 kts | 198° |
| 2026-04-25 07:05 | -30.78709 | 151.69514 | 22363 ft | 332 kts | 198° |
| 2026-04-25 07:06 | -30.80865 | 151.68503 | 22366 ft | 332 kts | 198° |
| 2026-04-25 07:06 | -30.83003 | 151.67500 | 22359 ft | 332 kts | 198° |
| 2026-04-25 07:06 | -30.85165 | 151.66486 | 22359 ft | 331 kts | 198° |
| 2026-04-25 07:06 | -30.87307 | 151.65480 | 22358 ft | 331 kts | 198° |
| 2026-04-25 07:07 | -30.89445 | 151.64476 | 22364 ft | 331 kts | 198° |
| 2026-04-25 07:07 | -30.91580 | 151.63472 | 22371 ft | 331 kts | 198° |
| 2026-04-25 07:07 | -30.93725 | 151.62463 | 22360 ft | 331 kts | 198° |
| 2026-04-25 07:07 | -30.95857 | 151.61459 | 22363 ft | 331 kts | 198° |
| 2026-04-25 07:08 | -30.97997 | 151.60452 | 22364 ft | 332 kts | 198° |
| 2026-04-25 07:08 | -31.00146 | 151.59441 | 22362 ft | 332 kts | 198° |
| 2026-04-25 07:08 | -31.02280 | 151.58435 | 22359 ft | 332 kts | 198° |
| 2026-04-25 07:08 | -31.04430 | 151.57422 | 22361 ft | 332 kts | 198° |
| 2026-04-25 07:09 | -31.06576 | 151.56409 | 22355 ft | 333 kts | 198° |
| 2026-04-25 07:09 | -31.08744 | 151.55386 | 22356 ft | 333 kts | 198° |
| 2026-04-25 07:09 | -31.10858 | 151.54388 | 22355 ft | 332 kts | 198° |
| 2026-04-25 07:09 | -31.12978 | 151.53386 | 22352 ft | 332 kts | 198° |
| 2026-04-25 07:10 | -31.15130 | 151.52370 | 22350 ft | 332 kts | 198° |
| 2026-04-25 07:10 | -31.17285 | 151.51350 | 22347 ft | 332 kts | 198° |
| 2026-04-25 07:10 | -31.19447 | 151.50328 | 22343 ft | 332 kts | 198° |
| 2026-04-25 07:10 | -31.21579 | 151.49318 | 22345 ft | 332 kts | 198° |
| 2026-04-25 07:11 | -31.23733 | 151.48300 | 22344 ft | 333 kts | 198° |
| 2026-04-25 07:11 | -31.25887 | 151.47322 | 22349 ft | 332 kts | 197° |
| 2026-04-25 07:11 | -31.28054 | 151.46355 | 22346 ft | 332 kts | 197° |
| 2026-04-25 07:11 | -31.30197 | 151.45373 | 22343 ft | 333 kts | 198° |
| 2026-04-25 07:12 | -31.32365 | 151.44313 | 22338 ft | 333 kts | 199° |
| 2026-04-25 07:12 | -31.36623 | 151.42244 | 22339 ft | 332 kts | 198° |
| 2026-04-25 07:12 | -31.38788 | 151.41232 | 22338 ft | 331 kts | 195° |
| 2026-04-25 07:13 | -31.40989 | 151.40483 | 22345 ft | 330 kts | 191° |
| 2026-04-25 07:13 | -31.43221 | 151.39783 | 22344 ft | 331 kts | 191° |
| 2026-04-25 07:13 | -31.45435 | 151.39088 | 22348 ft | 330 kts | 191° |
| 2026-04-25 07:13 | -31.47677 | 151.38390 | 22347 ft | 330 kts | 191° |
| 2026-04-25 07:14 | -31.49891 | 151.37698 | 22350 ft | 330 kts | 191° |
| 2026-04-25 07:14 | -31.52117 | 151.37001 | 22347 ft | 330 kts | 191° |
| 2026-04-25 07:14 | -31.54347 | 151.36304 | 22346 ft | 330 kts | 191° |
| 2026-04-25 07:14 | -31.56564 | 151.35609 | 22347 ft | 330 kts | 191° |
| 2026-04-25 07:15 | -31.58783 | 151.34914 | 22347 ft | 330 kts | 191° |
| 2026-04-25 07:15 | -31.61006 | 151.34215 | 22345 ft | 330 kts | 192° |
| 2026-04-25 07:15 | -31.63218 | 151.33519 | 22345 ft | 329 kts | 192° |
| 2026-04-25 07:15 | -31.65448 | 151.32819 | 22338 ft | 329 kts | 191° |
| 2026-04-25 07:16 | -31.67635 | 151.32130 | 22340 ft | 330 kts | 191° |
| 2026-04-25 07:16 | -31.69881 | 151.31424 | 22338 ft | 330 kts | 191° |
| 2026-04-25 07:16 | -31.72083 | 151.30730 | 22336 ft | 330 kts | 192° |
| 2026-04-25 07:16 | -31.74323 | 151.30025 | 22341 ft | 330 kts | 191° |
| 2026-04-25 07:17 | -31.76550 | 151.29323 | 22340 ft | 331 kts | 192° |
| 2026-04-25 07:17 | -31.78779 | 151.28621 | 22335 ft | 331 kts | 191° |
| 2026-04-25 07:17 | -31.81005 | 151.27918 | 22334 ft | 331 kts | 192° |
| 2026-04-25 07:17 | -31.83217 | 151.27220 | 22337 ft | 330 kts | 191° |
| 2026-04-25 07:18 | -31.85447 | 151.26515 | 22344 ft | 330 kts | 191° |
| 2026-04-25 07:18 | -31.87670 | 151.25813 | 22346 ft | 330 kts | 192° |
| 2026-04-25 07:18 | -31.89908 | 151.25105 | 22346 ft | 330 kts | 192° |
| 2026-04-25 07:18 | -31.92129 | 151.24402 | 22342 ft | 330 kts | 191° |
| 2026-04-25 07:19 | -31.94340 | 151.23703 | 22345 ft | 330 kts | 191° |
| 2026-04-25 07:19 | -31.96567 | 151.22998 | 22342 ft | 330 kts | 191° |
| 2026-04-25 07:19 | -31.98795 | 151.22292 | 22344 ft | 330 kts | 191° |
| 2026-04-25 07:19 | -32.01017 | 151.21756 | 22326 ft | 326 kts | 181° |
| 2026-04-25 07:20 | -32.03264 | 151.21857 | 22350 ft | 323 kts | 173° |
| 2026-04-25 07:20 | -32.05524 | 151.22020 | 22352 ft | 324 kts | 173° |
| 2026-04-25 07:20 | -32.07776 | 151.22197 | 22350 ft | 324 kts | 173° |
| 2026-04-25 07:20 | -32.10043 | 151.22376 | 22346 ft | 325 kts | 173° |
| 2026-04-25 07:21 | -32.12274 | 151.22548 | 22345 ft | 324 kts | 173° |
| 2026-04-25 07:21 | -32.14549 | 151.22722 | 22339 ft | 325 kts | 173° |
| 2026-04-25 07:21 | -32.16790 | 151.22891 | 22339 ft | 325 kts | 173° |
| 2026-04-25 07:21 | -32.19062 | 151.23062 | 22343 ft | 325 kts | 173° |
| 2026-04-25 07:22 | -32.21332 | 151.23231 | 22343 ft | 325 kts | 173° |
| 2026-04-25 07:22 | -32.23596 | 151.23399 | 22345 ft | 325 kts | 173° |
| 2026-04-25 07:22 | -32.25851 | 151.23567 | 22346 ft | 325 kts | 173° |
| 2026-04-25 07:22 | -32.28124 | 151.23735 | 22344 ft | 326 kts | 173° |
| 2026-04-25 07:23 | -32.30368 | 151.23898 | 22341 ft | 326 kts | 174° |
| 2026-04-25 07:23 | -32.32661 | 151.24008 | 22339 ft | 326 kts | 174° |
| 2026-04-25 07:23 | -32.34927 | 151.24190 | 22334 ft | 326 kts | 173° |
| 2026-04-25 07:23 | -32.37175 | 151.24367 | 22337 ft | 326 kts | 173° |
| 2026-04-25 07:24 | -32.39454 | 151.24545 | 22339 ft | 326 kts | 173° |
| 2026-04-25 07:24 | -32.41705 | 151.24718 | 22337 ft | 326 kts | 173° |
| 2026-04-25 07:24 | -32.43995 | 151.24893 | 22333 ft | 327 kts | 173° |
| 2026-04-25 07:24 | -32.46263 | 151.25064 | 22329 ft | 327 kts | 173° |
| 2026-04-25 07:25 | -32.48548 | 151.25236 | 22328 ft | 327 kts | 173° |
| 2026-04-25 07:25 | -32.50829 | 151.25407 | 22327 ft | 327 kts | 173° |
| 2026-04-25 07:25 | -32.53081 | 151.25575 | 22324 ft | 327 kts | 173° |
| 2026-04-25 07:25 | -32.55367 | 151.25719 | 22323 ft | 328 kts | 176° |
| 2026-04-25 07:26 | -32.57669 | 151.25636 | 22332 ft | 329 kts | 180° |
| 2026-04-25 07:26 | -32.59951 | 151.25511 | 22326 ft | 328 kts | 179° |
| 2026-04-25 07:26 | -32.62237 | 151.25383 | 22327 ft | 329 kts | 179° |
| 2026-04-25 07:26 | -32.64532 | 151.25253 | 22325 ft | 329 kts | 179° |
| 2026-04-25 07:27 | -32.66829 | 151.25127 | 22325 ft | 329 kts | 179° |
| 2026-04-25 07:27 | -32.69144 | 151.24999 | 22327 ft | 329 kts | 180° |
| 2026-04-25 07:27 | -32.71440 | 151.24872 | 22056 ft | 331 kts | 179° |
| 2026-04-25 07:27 | -32.73735 | 151.24748 | 21714 ft | 332 kts | 179° |
| 2026-04-25 07:28 | -32.76044 | 151.24625 | 21341 ft | 333 kts | 180° |
| 2026-04-25 07:28 | -32.78360 | 151.24501 | 20964 ft | 333 kts | 180° |
| 2026-04-25 07:28 | -32.80678 | 151.24377 | 20586 ft | 333 kts | 180° |
| 2026-04-25 07:28 | -32.83016 | 151.24252 | 20203 ft | 333 kts | 180° |
| 2026-04-25 07:29 | -32.85336 | 151.24127 | 19821 ft | 333 kts | 180° |
| 2026-04-25 07:29 | -32.87654 | 151.24002 | 19436 ft | 333 kts | 180° |
| 2026-04-25 07:29 | -32.89955 | 151.23879 | 19056 ft | 332 kts | 180° |
| 2026-04-25 07:29 | -32.92268 | 151.23753 | 18681 ft | 332 kts | 180° |
| 2026-04-25 07:30 | -32.94565 | 151.23630 | 18293 ft | 332 kts | 180° |
| 2026-04-25 07:30 | -32.96887 | 151.23503 | 17908 ft | 332 kts | 180° |
| 2026-04-25 07:30 | -32.99181 | 151.23379 | 17537 ft | 331 kts | 180° |
| 2026-04-25 07:30 | -33.01499 | 151.23254 | 17157 ft | 331 kts | 180° |
| 2026-04-25 07:31 | -33.03791 | 151.23129 | 16775 ft | 331 kts | 180° |
| 2026-04-25 07:31 | -33.06102 | 151.23004 | 16393 ft | 330 kts | 180° |
| 2026-04-25 07:31 | -33.08393 | 151.22881 | 16013 ft | 327 kts | 180° |
| 2026-04-25 07:31 | -33.10655 | 151.22757 | 15635 ft | 323 kts | 180° |
| 2026-04-25 07:32 | -33.12900 | 151.22635 | 15265 ft | 320 kts | 180° |
| 2026-04-25 07:32 | -33.15108 | 151.22516 | 14899 ft | 318 kts | 180° |
| 2026-04-25 07:32 | -33.17323 | 151.22395 | 14536 ft | 315 kts | 180° |
| 2026-04-25 07:32 | -33.19519 | 151.22275 | 14174 ft | 313 kts | 180° |
| 2026-04-25 07:33 | -33.21687 | 151.22157 | 13812 ft | 312 kts | 180° |
| 2026-04-25 07:33 | -33.23844 | 151.22040 | 13458 ft | 310 kts | 180° |
| 2026-04-25 07:33 | -33.26006 | 151.21921 | 13100 ft | 309 kts | 180° |
| 2026-04-25 07:33 | -33.28157 | 151.21803 | 12745 ft | 307 kts | 180° |
| 2026-04-25 07:34 | -33.30268 | 151.21689 | 12393 ft | 306 kts | 180° |
| 2026-04-25 07:34 | -33.32407 | 151.21571 | 12038 ft | 305 kts | 180° |
| 2026-04-25 07:34 | -33.34493 | 151.21457 | 11691 ft | 301 kts | 180° |
| 2026-04-25 07:34 | -33.36583 | 151.21343 | 11341 ft | 299 kts | 180° |
| 2026-04-25 07:35 | -33.38644 | 151.21231 | 11001 ft | 297 kts | 180° |
| 2026-04-25 07:35 | -33.40722 | 151.21117 | 10556 ft | 299 kts | 180° |
| 2026-04-25 07:35 | -33.42758 | 151.21007 | 10035 ft | 293 kts | 180° |
| 2026-04-25 07:35 | -33.44795 | 151.20891 | 9643 ft | 291 kts | 180° |
| 2026-04-25 07:36 | -33.46825 | 151.20773 | 9290 ft | 290 kts | 180° |
| 2026-04-25 07:36 | -33.48822 | 151.20662 | 8956 ft | 289 kts | 180° |
| 2026-04-25 07:36 | -33.50840 | 151.20549 | 8622 ft | 288 kts | 180° |
| 2026-04-25 07:36 | -33.52818 | 151.20438 | 8294 ft | 284 kts | 181° |
| 2026-04-25 07:37 | -33.54768 | 151.20335 | 7962 ft | 273 kts | 181° |
| 2026-04-25 07:37 | -33.56622 | 151.20236 | 7652 ft | 260 kts | 181° |
| 2026-04-25 07:37 | -33.58389 | 151.20137 | 7357 ft | 246 kts | 181° |
| 2026-04-25 07:37 | -33.60069 | 151.20047 | 7083 ft | 237 kts | 181° |
| 2026-04-25 07:38 | -33.61718 | 151.19948 | 6864 ft | 236 kts | 181° |
| 2026-04-25 07:38 | -33.63356 | 151.19858 | 6740 ft | 236 kts | 181° |
| 2026-04-25 07:38 | -33.65011 | 151.19774 | 6597 ft | 235 kts | 181° |
| 2026-04-25 07:38 | -33.66640 | 151.19691 | 6454 ft | 233 kts | 181° |
| 2026-04-25 07:39 | -33.68240 | 151.19611 | 6314 ft | 231 kts | 181° |
| 2026-04-25 07:39 | -33.69831 | 151.19527 | 6176 ft | 231 kts | 181° |
| 2026-04-25 07:39 | -33.71423 | 151.19446 | 6046 ft | 232 kts | 181° |
| 2026-04-25 07:39 | -33.73025 | 151.19365 | 5997 ft | 234 kts | 182° |
| 2026-04-25 07:40 | -33.74650 | 151.19279 | 5971 ft | 235 kts | 182° |
| 2026-04-25 07:40 | -33.76236 | 151.19197 | 5961 ft | 234 kts | 181° |
| 2026-04-25 07:40 | -33.77874 | 151.19113 | 5964 ft | 236 kts | 182° |
| 2026-04-25 07:40 | -33.79539 | 151.19028 | 5964 ft | 238 kts | 181° |
| 2026-04-25 07:41 | -33.81182 | 151.18941 | 5960 ft | 237 kts | 181° |
| 2026-04-25 07:41 | -33.82794 | 151.18857 | 5960 ft | 230 kts | 181° |
| 2026-04-25 07:41 | -33.84359 | 151.18776 | 5962 ft | 226 kts | 181° |
| 2026-04-25 07:41 | -33.85907 | 151.18869 | 5950 ft | 221 kts | 163° |
| 2026-04-25 07:42 | -33.87302 | 151.19615 | 5968 ft | 221 kts | 153° |
| 2026-04-25 07:42 | -33.88695 | 151.20406 | 5965 ft | 224 kts | 153° |
| 2026-04-25 07:42 | -33.90094 | 151.21227 | 5966 ft | 228 kts | 153° |
| 2026-04-25 07:42 | -33.91522 | 151.22063 | 5968 ft | 227 kts | 153° |
| 2026-04-25 07:43 | -33.92896 | 151.22871 | 5968 ft | 222 kts | 153° |
| 2026-04-25 07:43 | -33.94280 | 151.23683 | 5976 ft | 218 kts | 153° |
| 2026-04-25 07:43 | -33.95645 | 151.24483 | 5975 ft | 215 kts | 153° |
| 2026-04-25 07:43 | -33.96974 | 151.25258 | 5971 ft | 214 kts | 153° |
| 2026-04-25 07:44 | -33.98323 | 151.26041 | 5981 ft | 213 kts | 153° |
| 2026-04-25 07:44 | -33.99659 | 151.26813 | 5982 ft | 214 kts | 153° |
| 2026-04-25 07:44 | -34.01020 | 151.27597 | 5980 ft | 217 kts | 153° |
| 2026-04-25 07:44 | -34.02405 | 151.28400 | 5988 ft | 222 kts | 153° |
| 2026-04-25 07:45 | -34.03814 | 151.29224 | 5932 ft | 226 kts | 153° |
| 2026-04-25 07:45 | -34.05228 | 151.30063 | 5711 ft | 226 kts | 153° |
| 2026-04-25 07:45 | -34.06641 | 151.30893 | 5476 ft | 226 kts | 153° |
| 2026-04-25 07:45 | -34.08062 | 151.31725 | 5234 ft | 227 kts | 153° |
| 2026-04-25 07:46 | -34.09474 | 151.32547 | 4986 ft | 224 kts | 153° |
| 2026-04-25 07:46 | -34.10869 | 151.33356 | 4736 ft | 220 kts | 153° |
| 2026-04-25 07:46 | -34.12230 | 151.34140 | 4481 ft | 214 kts | 153° |
| 2026-04-25 07:46 | -34.13552 | 151.34897 | 4228 ft | 208 kts | 153° |
| 2026-04-25 07:47 | -34.14856 | 151.35641 | 3970 ft | 202 kts | 153° |
| 2026-04-25 07:47 | -34.16115 | 151.36356 | 3718 ft | 199 kts | 153° |
| 2026-04-25 07:47 | -34.17379 | 151.37016 | 3460 ft | 197 kts | 163° |
| 2026-04-25 07:47 | -34.18713 | 151.36961 | 3183 ft | 194 kts | 203° |
| 2026-04-25 07:48 | -34.19757 | 151.35877 | 2961 ft | 206 kts | 242° |
| 2026-04-25 07:48 | -34.20098 | 151.34190 | 2746 ft | 213 kts | 277° |
| 2026-04-25 07:48 | -34.19596 | 151.32526 | 2518 ft | 212 kts | 310° |
| 2026-04-25 07:48 | -34.18550 | 151.31331 | 2291 ft | 209 kts | 323° |
| 2026-04-25 07:49 | -34.17430 | 151.30168 | 2090 ft | 210 kts | 323° |
| 2026-04-25 07:49 | -34.16329 | 151.29033 | 2006 ft | 208 kts | 323° |
| 2026-04-25 07:49 | -34.15239 | 151.27898 | 1971 ft | 204 kts | 323° |
| 2026-04-25 07:49 | -34.14177 | 151.26788 | 1959 ft | 199 kts | 323° |
| 2026-04-25 07:50 | -34.13125 | 151.25691 | 1954 ft | 195 kts | 323° |
| 2026-04-25 07:50 | -34.12112 | 151.24629 | 1954 ft | 191 kts | 323° |
| 2026-04-25 07:50 | -34.11113 | 151.23584 | 1961 ft | 191 kts | 323° |
| 2026-04-25 07:50 | -34.09999 | 151.22723 | 1954 ft | 192 kts | 349° |
| 2026-04-25 07:51 | -34.08645 | 151.22516 | 1974 ft | 196 kts | 355° |
| 2026-04-25 07:51 | -34.07384 | 151.22160 | 1942 ft | 174 kts | 346° |
| 2026-04-25 07:51 | -34.06308 | 151.21776 | 1862 ft | 153 kts | 351° |
| 2026-04-25 07:51 | -34.05293 | 151.21507 | 1619 ft | 144 kts | 353° |
| 2026-04-25 07:52 | -34.04349 | 151.21263 | 1400 ft | 134 kts | 353° |
| 2026-04-25 07:52 | -34.03468 | 151.21046 | 1231 ft | 127 kts | 353° |
| 2026-04-25 07:52 | -34.02626 | 151.20830 | 1054 ft | 123 kts | 353° |
| 2026-04-25 07:52 | -34.01791 | 151.20631 | 947 ft | 126 kts | 355° |
| 2026-04-25 07:53 | -34.00917 | 151.20407 | 797 ft | 128 kts | 352° |
| 2026-04-25 07:53 | -34.00052 | 151.20169 | 641 ft | 129 kts | 353° |
| 2026-04-25 07:53 | -33.99225 | 151.19952 | 469 ft | 125 kts | 352° |
| 2026-04-25 07:53 | -33.98385 | 151.19719 | 302 ft | 126 kts | 352° |
| 2026-04-25 07:54 | -33.97536 | 151.19499 | 160 ft | 127 kts | 353° |
| 2026-04-25 07:54 | -33.96686 | 151.19281 | 14 ft | 119 kts | 352° |
| 2026-04-25 07:54 | -33.96121 | 151.19132 | 10 ft | 86 kts | 351° |
| 2026-04-25 07:54 | -33.95616 | 151.19002 | 13 ft | 45 kts | 346° |
| 2026-04-25 07:55 | -33.95351 | 151.18893 | 14 ft | 31 kts | 328° |
| 2026-04-25 07:55 | -33.95200 | 151.18751 | 15 ft | 8 kts | 319° |
| 2026-04-25 07:55 | -33.95177 | 151.18729 | 16 ft | 9 kts | 319° |
| 2026-04-25 07:55 | -33.95108 | 151.18651 | 17 ft | 12 kts | 310° |
| 2026-04-25 07:56 | -33.95097 | 151.18543 | 17 ft | 15 kts | 255° |
| 2026-04-25 07:56 | -33.95119 | 151.18420 | 18 ft | 17 kts | 259° |
| 2026-04-25 07:56 | -33.95143 | 151.18286 | 19 ft | 18 kts | 259° |
| 2026-04-25 07:56 | -33.95163 | 151.18176 | 20 ft | 0 kts | 258° |
| 2026-04-25 07:57 | -33.95169 | 151.18144 | 20 ft | 8 kts | 256° |
| 2026-04-25 07:58 | -33.95186 | 151.18043 | 20 ft | 15 kts | 265° |
| 2026-04-25 07:58 | -33.95134 | 151.17953 | 21 ft | 12 kts | 345° |
| 2026-04-25 07:58 | -33.95044 | 151.17931 | 23 ft | 14 kts | 350° |
| 2026-04-25 07:58 | -33.94943 | 151.17905 | 26 ft | 14 kts | 348° |
| 2026-04-25 07:59 | -33.94849 | 151.17879 | 27 ft | 13 kts | 347° |
| 2026-04-25 07:59 | -33.94778 | 151.17862 | 27 ft | 8 kts | 348° |
| 2026-04-25 07:59 | -33.94725 | 151.17848 | 27 ft | 9 kts | 348° |
| 2026-04-25 07:59 | -33.94639 | 151.17825 | 26 ft | 15 kts | 348° |
| 2026-04-25 08:00 | -33.94534 | 151.17798 | 26 ft | 13 kts | 348° |
| 2026-04-25 08:00 | -33.94420 | 151.17764 | 23 ft | 20 kts | 344° |
| 2026-04-25 08:00 | -33.94299 | 151.17725 | 20 ft | 15 kts | 346° |
| 2026-04-25 08:00 | -33.94206 | 151.17697 | 18 ft | 15 kts | 346° |
| 2026-04-25 08:01 | -33.94103 | 151.17665 | 14 ft | 16 kts | 346° |
| 2026-04-25 08:01 | -33.93982 | 151.17631 | 11 ft | 17 kts | 348° |
| 2026-04-25 08:01 | -33.93879 | 151.17607 | 10 ft | 15 kts | 348° |
| 2026-04-25 08:01 | -33.93766 | 151.17577 | 10 ft | 14 kts | 348° |
| 2026-04-25 08:02 | -33.93658 | 151.17549 | 10 ft | 18 kts | 348° |
| 2026-04-25 08:02 | -33.93544 | 151.17519 | 10 ft | 17 kts | 348° |
| 2026-04-25 08:02 | -33.93447 | 151.17502 | 12 ft | 10 kts | 3° |
| 2026-04-25 08:02 | -33.93368 | 151.17502 | 15 ft | 13 kts | 348° |
| 2026-04-25 08:03 | -33.93260 | 151.17473 | 19 ft | 18 kts | 348° |
| 2026-04-25 08:03 | -33.93161 | 151.17447 | 21 ft | 12 kts | 348° |
| 2026-04-25 08:03 | -33.93091 | 151.17430 | 21 ft | 10 kts | 349° |
| 2026-04-25 08:03 | -33.93014 | 151.17416 | 23 ft | 10 kts | 11° |
| 2026-04-25 08:04 | -33.92988 | 151.17485 | 23 ft | 13 kts | 99° |
| 2026-04-25 08:04 | -33.93010 | 151.17618 | 23 ft | 18 kts | 99° |
| 2026-04-25 08:04 | -33.93040 | 151.17735 | 23 ft | 11 kts | 118° |
| 2026-04-25 08:04 | -33.93069 | 151.17850 | 24 ft | 18 kts | 101° |
| 2026-04-25 08:05 | -33.93095 | 151.18043 | 27 ft | 33 kts | 99° |
| 2026-04-25 08:05 | -33.93122 | 151.18187 | 30 ft | 7 kts | 103° |
| 2026-04-25 08:05 | -33.93128 | 151.18225 | 31 ft | 0 kts | 99° |